sensor_id;sensor_type;location;lat;lon;timestamp;temperature;humidity
44886;DHT22;36669;51.428;21.162;2022-10-16T00:00:19;12.90;99.90
44886;DHT22;36669;51.428;21.162;2022-10-16T00:02:45;12.90;99.90
44886;DHT22;36669;51.428;21.162;2022-10-16T00:05:10;12.90;99.90
44886;DHT22;36669;51.428;21.162;2022-10-16T00:07:36;12.90;99.90
44886;DHT22;36669;51.428;21.162;2022-10-16T00:10:01;12.90;99.90
44886;DHT22;36669;51.428;21.162;2022-10-16T00:12:27;12.80;99.90
44886;DHT22;36669;51.428;21.162;2022-10-16T00:14:52;12.80;99.90
44886;DHT22;36669;51.428;21.162;2022-10-16T00:17:18;12.80;99.90
44886;DHT22;36669;51.428;21.162;2022-10-16T00:19:43;12.80;99.90
44886;DHT22;36669;51.428;21.162;2022-10-16T00:22:09;12.80;99.90
44886;DHT22;36669;51.428;21.162;2022-10-16T00:24:36;12.80;99.90
44886;DHT22;36669;51.428;21.162;2022-10-16T00:27:03;12.80;99.90
44886;DHT22;36669;51.428;21.162;2022-10-16T00:29:28;12.90;99.90
44886;DHT22;36669;51.428;21.162;2022-10-16T00:31:54;12.90;99.90
44886;DHT22;36669;51.428;21.162;2022-10-16T00:34:19;12.90;99.90
44886;DHT22;36669;51.428;21.162;2022-10-16T00:36:45;12.90;99.90
44886;DHT22;36669;51.428;21.162;2022-10-16T00:39:10;12.90;99.90
44886;DHT22;36669;51.428;21.162;2022-10-16T00:41:36;13.00;99.90
44886;DHT22;36669;51.428;21.162;2022-10-16T00:44:04;13.00;99.90
44886;DHT22;36669;51.428;21.162;2022-10-16T00:46:49;13.00;99.90
44886;DHT22;36669;51.428;21.162;2022-10-16T00:49:16;13.00;99.90
44886;DHT22;36669;51.428;21.162;2022-10-16T00:51:50;13.00;99.90
44886;DHT22;36669;51.428;21.162;2022-10-16T00:54:19;13.10;99.90
44886;DHT22;36669;51.428;21.162;2022-10-16T00:56:46;13.10;99.90
44886;DHT22;36669;51.428;21.162;2022-10-16T00:59:22;13.10;99.90
44886;DHT22;36669;51.428;21.162;2022-10-16T01:01:49;13.10;99.90
44886;DHT22;36669;51.428;21.162;2022-10-16T01:04:14;13.10;99.90
44886;DHT22;36669;51.428;21.162;2022-10-16T01:15:17;13.20;99.90
44886;DHT22;36669;51.428;21.162;2022-10-16T01:20:26;13.20;99.90
44886;DHT22;36669;51.428;21.162;2022-10-16T01:31:31;13.20;99.90
44886;DHT22;36669;51.428;21.162;2022-10-16T01:36:52;13.20;99.90
44886;DHT22;36669;51.428;21.162;2022-10-16T01:39:22;13.20;99.90
44886;DHT22;36669;51.428;21.162;2022-10-16T01:41:54;13.10;99.90
44886;DHT22;36669;51.428;21.162;2022-10-16T01:44:22;13.10;99.90
44886;DHT22;36669;51.428;21.162;2022-10-16T01:46:52;13.10;99.90
44886;DHT22;36669;51.428;21.162;2022-10-16T01:49:18;13.10;99.90
44886;DHT22;36669;51.428;21.162;2022-10-16T01:51:48;13.10;99.90
44886;DHT22;36669;51.428;21.162;2022-10-16T01:54:16;13.10;99.90
44886;DHT22;36669;51.428;21.162;2022-10-16T01:56:43;13.10;99.90
44886;DHT22;36669;51.428;21.162;2022-10-16T01:59:13;13.10;99.90
44886;DHT22;36669;51.428;21.162;2022-10-16T02:01:44;13.10;99.90
44886;DHT22;36669;51.428;21.162;2022-10-16T02:04:23;13.10;99.90
44886;DHT22;36669;51.428;21.162;2022-10-16T02:06:49;13.10;99.90
44886;DHT22;36669;51.428;21.162;2022-10-16T02:09:15;13.10;99.90
44886;DHT22;36669;51.428;21.162;2022-10-16T02:11:40;13.10;99.90
44886;DHT22;36669;51.428;21.162;2022-10-16T02:14:07;13.20;99.90
44886;DHT22;36669;51.428;21.162;2022-10-16T02:16:41;13.20;99.90
44886;DHT22;36669;51.428;21.162;2022-10-16T02:19:07;13.20;99.90
44886;DHT22;36669;51.428;21.162;2022-10-16T02:29:47;13.20;99.90
44886;DHT22;36669;51.428;21.162;2022-10-16T02:32:17;13.20;99.90
44886;DHT22;36669;51.428;21.162;2022-10-16T02:34:45;13.20;99.90
44886;DHT22;36669;51.428;21.162;2022-10-16T02:37:12;13.20;99.90
44886;DHT22;36669;51.428;21.162;2022-10-16T02:39:39;13.30;99.90
44886;DHT22;36669;51.428;21.162;2022-10-16T02:42:13;13.30;99.90
44886;DHT22;36669;51.428;21.162;2022-10-16T02:44:39;13.20;99.90
44886;DHT22;36669;51.428;21.162;2022-10-16T02:47:05;13.30;99.90
44886;DHT22;36669;51.428;21.162;2022-10-16T02:49:31;13.30;99.90
44886;DHT22;36669;51.428;21.162;2022-10-16T02:51:57;13.40;99.90
44886;DHT22;36669;51.428;21.162;2022-10-16T02:54:23;13.40;99.90
44886;DHT22;36669;51.428;21.162;2022-10-16T02:56:48;13.40;99.90
44886;DHT22;36669;51.428;21.162;2022-10-16T02:59:14;13.40;99.90
44886;DHT22;36669;51.428;21.162;2022-10-16T03:01:39;13.40;99.90
44886;DHT22;36669;51.428;21.162;2022-10-16T03:04:05;13.40;99.90
44886;DHT22;36669;51.428;21.162;2022-10-16T03:06:30;13.50;99.90
44886;DHT22;36669;51.428;21.162;2022-10-16T03:08:56;13.50;99.90
44886;DHT22;36669;51.428;21.162;2022-10-16T03:11:21;13.50;99.90
44886;DHT22;36669;51.428;21.162;2022-10-16T03:13:48;13.50;99.90
44886;DHT22;36669;51.428;21.162;2022-10-16T03:16:13;13.60;99.90
44886;DHT22;36669;51.428;21.162;2022-10-16T03:18:39;13.60;99.90
44886;DHT22;36669;51.428;21.162;2022-10-16T03:21:04;13.60;99.90
44886;DHT22;36669;51.428;21.162;2022-10-16T03:23:30;13.70;99.90
44886;DHT22;36669;51.428;21.162;2022-10-16T03:25:55;13.70;99.90
44886;DHT22;36669;51.428;21.162;2022-10-16T03:28:21;13.70;99.90
44886;DHT22;36669;51.428;21.162;2022-10-16T03:30:46;13.80;99.90
44886;DHT22;36669;51.428;21.162;2022-10-16T03:33:12;13.80;99.90
44886;DHT22;36669;51.428;21.162;2022-10-16T03:35:37;13.80;99.90
44886;DHT22;36669;51.428;21.162;2022-10-16T03:38:04;13.80;99.90
44886;DHT22;36669;51.428;21.162;2022-10-16T03:40:31;13.70;99.90
44886;DHT22;36669;51.428;21.162;2022-10-16T03:42:56;13.70;99.90
44886;DHT22;36669;51.428;21.162;2022-10-16T03:45:22;13.70;99.90
44886;DHT22;36669;51.428;21.162;2022-10-16T03:47:47;13.70;99.90
44886;DHT22;36669;51.428;21.162;2022-10-16T03:50:13;13.70;99.90
44886;DHT22;36669;51.428;21.162;2022-10-16T03:52:38;13.70;99.90
44886;DHT22;36669;51.428;21.162;2022-10-16T03:55:04;13.70;99.90
44886;DHT22;36669;51.428;21.162;2022-10-16T03:57:30;13.80;99.90
44886;DHT22;36669;51.428;21.162;2022-10-16T03:59:55;13.80;99.90
44886;DHT22;36669;51.428;21.162;2022-10-16T04:02:21;13.70;99.90
44886;DHT22;36669;51.428;21.162;2022-10-16T04:04:47;13.70;99.90
44886;DHT22;36669;51.428;21.162;2022-10-16T04:07:13;13.70;99.90
44886;DHT22;36669;51.428;21.162;2022-10-16T04:09:38;13.70;99.90
44886;DHT22;36669;51.428;21.162;2022-10-16T04:12:04;13.80;99.90
44886;DHT22;36669;51.428;21.162;2022-10-16T04:14:29;13.70;99.90
44886;DHT22;36669;51.428;21.162;2022-10-16T04:16:55;13.70;99.90
44886;DHT22;36669;51.428;21.162;2022-10-16T04:19:20;13.70;99.90
44886;DHT22;36669;51.428;21.162;2022-10-16T04:21:46;13.70;99.90
44886;DHT22;36669;51.428;21.162;2022-10-16T04:24:11;13.70;99.90
44886;DHT22;36669;51.428;21.162;2022-10-16T04:26:37;13.70;99.90
44886;DHT22;36669;51.428;21.162;2022-10-16T04:29:03;13.70;99.90
44886;DHT22;36669;51.428;21.162;2022-10-16T04:31:28;13.70;99.90
44886;DHT22;36669;51.428;21.162;2022-10-16T04:33:54;13.70;99.90
44886;DHT22;36669;51.428;21.162;2022-10-16T04:36:19;13.60;99.90
44886;DHT22;36669;51.428;21.162;2022-10-16T04:38:45;13.60;99.90
44886;DHT22;36669;51.428;21.162;2022-10-16T04:41:10;13.50;99.90
44886;DHT22;36669;51.428;21.162;2022-10-16T04:43:36;13.40;99.90
44886;DHT22;36669;51.428;21.162;2022-10-16T04:46:01;13.40;99.90
44886;DHT22;36669;51.428;21.162;2022-10-16T04:48:27;13.30;99.90
44886;DHT22;36669;51.428;21.162;2022-10-16T04:50:52;13.20;99.90
44886;DHT22;36669;51.428;21.162;2022-10-16T04:53:19;13.10;99.90
44886;DHT22;36669;51.428;21.162;2022-10-16T04:55:46;13.00;99.90
44886;DHT22;36669;51.428;21.162;2022-10-16T04:58:11;13.00;99.90
44886;DHT22;36669;51.428;21.162;2022-10-16T05:00:37;13.00;99.90
44886;DHT22;36669;51.428;21.162;2022-10-16T05:03:03;13.00;99.90
44886;DHT22;36669;51.428;21.162;2022-10-16T05:05:28;12.90;99.90
44886;DHT22;36669;51.428;21.162;2022-10-16T05:07:54;12.80;99.90
44886;DHT22;36669;51.428;21.162;2022-10-16T05:10:19;12.80;99.90
44886;DHT22;36669;51.428;21.162;2022-10-16T05:12:45;12.70;99.90
44886;DHT22;36669;51.428;21.162;2022-10-16T05:15:11;12.70;99.90
44886;DHT22;36669;51.428;21.162;2022-10-16T05:17:37;12.60;99.90
44886;DHT22;36669;51.428;21.162;2022-10-16T05:20:03;12.60;99.90
44886;DHT22;36669;51.428;21.162;2022-10-16T05:22:28;12.50;99.90
44886;DHT22;36669;51.428;21.162;2022-10-16T05:24:54;12.50;99.90
44886;DHT22;36669;51.428;21.162;2022-10-16T05:27:20;12.50;99.90
44886;DHT22;36669;51.428;21.162;2022-10-16T05:29:46;12.50;99.90
44886;DHT22;36669;51.428;21.162;2022-10-16T05:32:16;12.40;99.90
44886;DHT22;36669;51.428;21.162;2022-10-16T05:34:42;12.40;99.90
44886;DHT22;36669;51.428;21.162;2022-10-16T05:37:07;12.50;99.90
44886;DHT22;36669;51.428;21.162;2022-10-16T05:39:33;12.50;99.90
44886;DHT22;36669;51.428;21.162;2022-10-16T05:41:58;12.50;99.90
44886;DHT22;36669;51.428;21.162;2022-10-16T05:44:24;12.50;99.90
44886;DHT22;36669;51.428;21.162;2022-10-16T05:46:49;12.50;99.90
44886;DHT22;36669;51.428;21.162;2022-10-16T05:49:15;12.50;99.90
44886;DHT22;36669;51.428;21.162;2022-10-16T05:51:40;12.50;99.90
44886;DHT22;36669;51.428;21.162;2022-10-16T05:54:06;12.50;99.90
44886;DHT22;36669;51.428;21.162;2022-10-16T05:56:31;12.50;99.90
44886;DHT22;36669;51.428;21.162;2022-10-16T05:58:57;12.50;99.90
44886;DHT22;36669;51.428;21.162;2022-10-16T06:01:22;12.60;99.90
44886;DHT22;36669;51.428;21.162;2022-10-16T06:03:48;12.70;99.90
44886;DHT22;36669;51.428;21.162;2022-10-16T06:06:22;12.70;99.90
44886;DHT22;36669;51.428;21.162;2022-10-16T06:08:48;12.60;99.90
44886;DHT22;36669;51.428;21.162;2022-10-16T06:11:18;12.70;99.90
44886;DHT22;36669;51.428;21.162;2022-10-16T06:13:44;12.80;99.90
44886;DHT22;36669;51.428;21.162;2022-10-16T06:16:10;12.90;99.90
44886;DHT22;36669;51.428;21.162;2022-10-16T06:18:36;12.90;99.90
44886;DHT22;36669;51.428;21.162;2022-10-16T06:21:16;12.90;99.90
44886;DHT22;36669;51.428;21.162;2022-10-16T06:23:42;12.90;99.90
44886;DHT22;36669;51.428;21.162;2022-10-16T06:26:10;13.10;99.90
44886;DHT22;36669;51.428;21.162;2022-10-16T06:28:36;13.10;99.90
44886;DHT22;36669;51.428;21.162;2022-10-16T06:31:03;13.20;99.90
44886;DHT22;36669;51.428;21.162;2022-10-16T06:33:29;13.20;99.90
44886;DHT22;36669;51.428;21.162;2022-10-16T06:36:04;13.20;99.90
44886;DHT22;36669;51.428;21.162;2022-10-16T06:38:30;13.30;99.90
44886;DHT22;36669;51.428;21.162;2022-10-16T06:40:56;13.40;99.90
44886;DHT22;36669;51.428;21.162;2022-10-16T06:43:21;13.50;99.90
44886;DHT22;36669;51.428;21.162;2022-10-16T06:48:17;13.60;99.90
44886;DHT22;36669;51.428;21.162;2022-10-16T06:50:43;13.70;99.90
44886;DHT22;36669;51.428;21.162;2022-10-16T06:53:08;13.80;99.90
44886;DHT22;36669;51.428;21.162;2022-10-16T06:55:34;13.80;99.90
44886;DHT22;36669;51.428;21.162;2022-10-16T06:57:59;13.90;99.90
44886;DHT22;36669;51.428;21.162;2022-10-16T07:00:24;14.00;99.90
44886;DHT22;36669;51.428;21.162;2022-10-16T07:02:50;14.10;99.90
44886;DHT22;36669;51.428;21.162;2022-10-16T07:05:15;14.20;99.90
44886;DHT22;36669;51.428;21.162;2022-10-16T07:07:41;14.30;99.90
44886;DHT22;36669;51.428;21.162;2022-10-16T07:10:07;14.40;99.90
44886;DHT22;36669;51.428;21.162;2022-10-16T07:12:32;14.50;99.90
44886;DHT22;36669;51.428;21.162;2022-10-16T07:14:58;14.70;99.90
44886;DHT22;36669;51.428;21.162;2022-10-16T07:17:23;14.90;99.90
44886;DHT22;36669;51.428;21.162;2022-10-16T07:19:49;15.10;99.90
44886;DHT22;36669;51.428;21.162;2022-10-16T07:22:14;15.20;99.90
44886;DHT22;36669;51.428;21.162;2022-10-16T07:24:40;15.30;99.90
44886;DHT22;36669;51.428;21.162;2022-10-16T07:27:05;15.40;99.90
44886;DHT22;36669;51.428;21.162;2022-10-16T07:29:31;15.40;99.90
44886;DHT22;36669;51.428;21.162;2022-10-16T07:31:56;15.50;99.90
44886;DHT22;36669;51.428;21.162;2022-10-16T07:34:22;15.50;99.90
44886;DHT22;36669;51.428;21.162;2022-10-16T07:36:49;15.60;99.90
44886;DHT22;36669;51.428;21.162;2022-10-16T07:39:14;15.60;99.90
44886;DHT22;36669;51.428;21.162;2022-10-16T07:41:40;15.70;99.90
44886;DHT22;36669;51.428;21.162;2022-10-16T07:44:05;15.70;99.90
44886;DHT22;36669;51.428;21.162;2022-10-16T07:46:31;15.80;99.90
44886;DHT22;36669;51.428;21.162;2022-10-16T07:48:56;15.90;99.90
44886;DHT22;36669;51.428;21.162;2022-10-16T07:51:23;15.90;99.90
44886;DHT22;36669;51.428;21.162;2022-10-16T07:53:50;15.90;99.90
44886;DHT22;36669;51.428;21.162;2022-10-16T07:56:16;15.90;99.90
44886;DHT22;36669;51.428;21.162;2022-10-16T07:58:42;15.90;99.90
44886;DHT22;36669;51.428;21.162;2022-10-16T08:01:11;15.90;99.90
44886;DHT22;36669;51.428;21.162;2022-10-16T08:03:37;15.90;99.90
44886;DHT22;36669;51.428;21.162;2022-10-16T08:06:03;15.90;99.90
44886;DHT22;36669;51.428;21.162;2022-10-16T08:08:29;16.00;99.90
44886;DHT22;36669;51.428;21.162;2022-10-16T08:10:55;16.00;99.90
44886;DHT22;36669;51.428;21.162;2022-10-16T08:13:21;16.00;99.90
44886;DHT22;36669;51.428;21.162;2022-10-16T08:15:47;16.00;99.90
44886;DHT22;36669;51.428;21.162;2022-10-16T08:18:14;16.10;99.90
44886;DHT22;36669;51.428;21.162;2022-10-16T08:20:40;16.10;99.90
44886;DHT22;36669;51.428;21.162;2022-10-16T08:23:06;16.20;99.90
44886;DHT22;36669;51.428;21.162;2022-10-16T08:25:34;16.30;99.90
44886;DHT22;36669;51.428;21.162;2022-10-16T08:28:00;16.30;99.90
44886;DHT22;36669;51.428;21.162;2022-10-16T08:30:25;16.50;99.90
44886;DHT22;36669;51.428;21.162;2022-10-16T08:32:51;16.60;99.90
44886;DHT22;36669;51.428;21.162;2022-10-16T08:35:17;16.80;99.90
44886;DHT22;36669;51.428;21.162;2022-10-16T08:37:43;16.90;99.90
44886;DHT22;36669;51.428;21.162;2022-10-16T08:40:30;17.00;99.90
44886;DHT22;36669;51.428;21.162;2022-10-16T08:50:42;17.50;99.90
44886;DHT22;36669;51.428;21.162;2022-10-16T08:53:25;17.50;99.90
44886;DHT22;36669;51.428;21.162;2022-10-16T08:55:53;17.50;99.90
44886;DHT22;36669;51.428;21.162;2022-10-16T08:58:22;17.60;99.90
44886;DHT22;36669;51.428;21.162;2022-10-16T09:00:54;17.70;99.90
44886;DHT22;36669;51.428;21.162;2022-10-16T09:17:42;18.00;99.90
44886;DHT22;36669;51.428;21.162;2022-10-16T09:25:30;18.50;99.90
44886;DHT22;36669;51.428;21.162;2022-10-16T09:27:56;18.60;99.90
44886;DHT22;36669;51.428;21.162;2022-10-16T09:30:25;18.70;99.90
44886;DHT22;36669;51.428;21.162;2022-10-16T09:32:53;18.80;99.90
44886;DHT22;36669;51.428;21.162;2022-10-16T09:35:21;18.90;99.90
44886;DHT22;36669;51.428;21.162;2022-10-16T09:37:51;19.00;99.90
44886;DHT22;36669;51.428;21.162;2022-10-16T09:40:28;19.00;99.90
44886;DHT22;36669;51.428;21.162;2022-10-16T09:43:03;19.10;99.90
44886;DHT22;36669;51.428;21.162;2022-10-16T09:45:31;19.20;99.90
44886;DHT22;36669;51.428;21.162;2022-10-16T09:48:08;19.30;99.90
44886;DHT22;36669;51.428;21.162;2022-10-16T09:50:35;19.30;99.90
44886;DHT22;36669;51.428;21.162;2022-10-16T09:53:05;19.40;99.90
44886;DHT22;36669;51.428;21.162;2022-10-16T09:55:31;19.30;99.90
44886;DHT22;36669;51.428;21.162;2022-10-16T09:57:57;19.40;99.90
44886;DHT22;36669;51.428;21.162;2022-10-16T10:00:24;19.40;99.90
44886;DHT22;36669;51.428;21.162;2022-10-16T10:02:49;19.50;99.90
44886;DHT22;36669;51.428;21.162;2022-10-16T10:05:22;19.30;99.90
44886;DHT22;36669;51.428;21.162;2022-10-16T10:08:02;19.30;99.90
44886;DHT22;36669;51.428;21.162;2022-10-16T10:10:31;19.30;99.90
44886;DHT22;36669;51.428;21.162;2022-10-16T10:12:58;19.50;99.90
44886;DHT22;36669;51.428;21.162;2022-10-16T10:15:25;19.50;99.90
44886;DHT22;36669;51.428;21.162;2022-10-16T10:17:57;19.60;99.90
44886;DHT22;36669;51.428;21.162;2022-10-16T10:20:34;19.90;99.90
44886;DHT22;36669;51.428;21.162;2022-10-16T10:23:01;20.00;99.90
44886;DHT22;36669;51.428;21.162;2022-10-16T10:30:57;20.50;99.90
44886;DHT22;36669;51.428;21.162;2022-10-16T10:33:34;20.60;99.90
44886;DHT22;36669;51.428;21.162;2022-10-16T10:36:22;20.50;99.90
44886;DHT22;36669;51.428;21.162;2022-10-16T10:39:00;20.70;99.90
44886;DHT22;36669;51.428;21.162;2022-10-16T10:44:37;21.10;99.90
44886;DHT22;36669;51.428;21.162;2022-10-16T10:47:36;21.30;99.90
44886;DHT22;36669;51.428;21.162;2022-10-16T10:52:59;21.60;99.90
44886;DHT22;36669;51.428;21.162;2022-10-16T10:55:39;21.60;99.90
44886;DHT22;36669;51.428;21.162;2022-10-16T11:01:14;22.10;99.90
44886;DHT22;36669;51.428;21.162;2022-10-16T11:07:15;22.10;99.90
44886;DHT22;36669;51.428;21.162;2022-10-16T11:09:48;21.90;99.90
44886;DHT22;36669;51.428;21.162;2022-10-16T11:12:28;21.90;99.90
44886;DHT22;36669;51.428;21.162;2022-10-16T11:15:14;21.90;99.90
44886;DHT22;36669;51.428;21.162;2022-10-16T11:18:06;22.10;99.90
44886;DHT22;36669;51.428;21.162;2022-10-16T11:20:42;22.10;99.90
44886;DHT22;36669;51.428;21.162;2022-10-16T11:23:21;22.30;99.90
44886;DHT22;36669;51.428;21.162;2022-10-16T11:25:49;22.40;99.90
44886;DHT22;36669;51.428;21.162;2022-10-16T11:28:26;22.50;99.90
44886;DHT22;36669;51.428;21.162;2022-10-16T11:31:10;22.50;99.90
44886;DHT22;36669;51.428;21.162;2022-10-16T11:34:03;22.60;99.90
44886;DHT22;36669;51.428;21.162;2022-10-16T11:36:41;22.60;99.90
44886;DHT22;36669;51.428;21.162;2022-10-16T11:42:25;22.60;99.90
44886;DHT22;36669;51.428;21.162;2022-10-16T11:45:24;22.50;99.90
44886;DHT22;36669;51.428;21.162;2022-10-16T11:49:13;22.60;99.90
44886;DHT22;36669;51.428;21.162;2022-10-16T11:56:51;22.30;99.90
44886;DHT22;36669;51.428;21.162;2022-10-16T11:59:34;22.10;99.90
44886;DHT22;36669;51.428;21.162;2022-10-16T12:02:30;21.70;99.90
44886;DHT22;36669;51.428;21.162;2022-10-16T12:07:57;22.10;99.90
44886;DHT22;36669;51.428;21.162;2022-10-16T12:10:28;22.10;99.90
44886;DHT22;36669;51.428;21.162;2022-10-16T12:12:54;22.20;99.90
44886;DHT22;36669;51.428;21.162;2022-10-16T12:15:22;22.10;99.90
44886;DHT22;36669;51.428;21.162;2022-10-16T12:17:48;22.10;99.90
44886;DHT22;36669;51.428;21.162;2022-10-16T12:20:21;21.60;99.90
44886;DHT22;36669;51.428;21.162;2022-10-16T12:22:52;21.60;99.90
44886;DHT22;36669;51.428;21.162;2022-10-16T12:25:30;21.30;99.90
44886;DHT22;36669;51.428;21.162;2022-10-16T12:28:05;21.60;99.90
44886;DHT22;36669;51.428;21.162;2022-10-16T12:30:34;21.90;99.90
44886;DHT22;36669;51.428;21.162;2022-10-16T12:33:03;22.00;99.90
44886;DHT22;36669;51.428;21.162;2022-10-16T12:35:43;21.90;99.90
44886;DHT22;36669;51.428;21.162;2022-10-16T12:38:19;22.00;99.90
44886;DHT22;36669;51.428;21.162;2022-10-16T12:40:54;21.80;99.90
44886;DHT22;36669;51.428;21.162;2022-10-16T12:45:45;22.00;99.90
44886;DHT22;36669;51.428;21.162;2022-10-16T12:48:20;21.90;99.90
44886;DHT22;36669;51.428;21.162;2022-10-16T12:50:47;21.90;99.90
44886;DHT22;36669;51.428;21.162;2022-10-16T12:53:26;21.90;99.90
44886;DHT22;36669;51.428;21.162;2022-10-16T12:56:20;21.90;99.90
44886;DHT22;36669;51.428;21.162;2022-10-16T13:08:24;22.40;99.90
44886;DHT22;36669;51.428;21.162;2022-10-16T13:10:40;22.60;99.90
44886;DHT22;36669;51.428;21.162;2022-10-16T13:16:27;23.00;99.90
44886;DHT22;36669;51.428;21.162;2022-10-16T13:18:58;23.20;99.90
44886;DHT22;36669;51.428;21.162;2022-10-16T13:22:04;22.70;99.90
44886;DHT22;36669;51.428;21.162;2022-10-16T13:30:24;21.50;99.90
44886;DHT22;36669;51.428;21.162;2022-10-16T13:33:01;21.40;99.90
44886;DHT22;36669;51.428;21.162;2022-10-16T13:35:31;21.40;99.90
44886;DHT22;36669;51.428;21.162;2022-10-16T13:40:30;21.30;99.90
44886;DHT22;36669;51.428;21.162;2022-10-16T13:42:59;21.20;99.90
44886;DHT22;36669;51.428;21.162;2022-10-16T13:45:26;21.10;99.90
44886;DHT22;36669;51.428;21.162;2022-10-16T13:48:05;21.10;99.90
44886;DHT22;36669;51.428;21.162;2022-10-16T13:50:31;20.80;99.90
44886;DHT22;36669;51.428;21.162;2022-10-16T13:53:07;20.70;99.90
44886;DHT22;36669;51.428;21.162;2022-10-16T13:55:36;20.70;99.90
44886;DHT22;36669;51.428;21.162;2022-10-16T13:58:07;20.60;99.90
44886;DHT22;36669;51.428;21.162;2022-10-16T14:00:33;20.60;99.90
44886;DHT22;36669;51.428;21.162;2022-10-16T14:03:03;20.50;99.90
44886;DHT22;36669;51.428;21.162;2022-10-16T14:05:29;20.60;99.90
44886;DHT22;36669;51.428;21.162;2022-10-16T14:07:55;20.50;99.90
44886;DHT22;36669;51.428;21.162;2022-10-16T14:10:30;20.50;99.90
44886;DHT22;36669;51.428;21.162;2022-10-16T14:15:23;20.60;99.90
44886;DHT22;36669;51.428;21.162;2022-10-16T14:17:51;20.50;99.90
44886;DHT22;36669;51.428;21.162;2022-10-16T14:20:17;20.50;99.90
44886;DHT22;36669;51.428;21.162;2022-10-16T14:22:43;20.50;99.90
44886;DHT22;36669;51.428;21.162;2022-10-16T14:30:26;20.30;99.90
44886;DHT22;36669;51.428;21.162;2022-10-16T14:33:03;20.40;99.90
44886;DHT22;36669;51.428;21.162;2022-10-16T14:37:58;20.30;99.90
44886;DHT22;36669;51.428;21.162;2022-10-16T14:40:27;20.30;99.90
44886;DHT22;36669;51.428;21.162;2022-10-16T14:42:54;20.30;99.90
44886;DHT22;36669;51.428;21.162;2022-10-16T14:45:32;20.40;99.90
44886;DHT22;36669;51.428;21.162;2022-10-16T14:48:02;20.50;99.90
44886;DHT22;36669;51.428;21.162;2022-10-16T14:50:29;20.60;99.90
44886;DHT22;36669;51.428;21.162;2022-10-16T14:52:55;20.70;99.90
44886;DHT22;36669;51.428;21.162;2022-10-16T14:55:21;21.00;99.90
44886;DHT22;36669;51.428;21.162;2022-10-16T14:57:47;21.20;99.90
44886;DHT22;36669;51.428;21.162;2022-10-16T15:00:19;21.50;99.90
44886;DHT22;36669;51.428;21.162;2022-10-16T15:02:46;21.50;99.90
44886;DHT22;36669;51.428;21.162;2022-10-16T15:05:20;21.60;99.90
44886;DHT22;36669;51.428;21.162;2022-10-16T15:07:46;21.40;99.90
44886;DHT22;36669;51.428;21.162;2022-10-16T15:10:13;21.20;99.90
44886;DHT22;36669;51.428;21.162;2022-10-16T15:12:39;20.90;99.90
44886;DHT22;36669;51.428;21.162;2022-10-16T15:15:24;20.70;99.90
44886;DHT22;36669;51.428;21.162;2022-10-16T15:17:53;20.50;99.90
44886;DHT22;36669;51.428;21.162;2022-10-16T15:20:19;20.30;99.90
44886;DHT22;36669;51.428;21.162;2022-10-16T15:22:45;20.20;99.90
44886;DHT22;36669;51.428;21.162;2022-10-16T15:25:34;20.00;99.90
44886;DHT22;36669;51.428;21.162;2022-10-16T15:28:01;19.90;99.90
44886;DHT22;36669;51.428;21.162;2022-10-16T15:30:28;19.80;99.90
44886;DHT22;36669;51.428;21.162;2022-10-16T15:32:55;19.70;99.90
44886;DHT22;36669;51.428;21.162;2022-10-16T15:35:21;19.60;99.90
44886;DHT22;36669;51.428;21.162;2022-10-16T15:37:47;19.60;99.90
44886;DHT22;36669;51.428;21.162;2022-10-16T15:40:12;19.50;99.90
44886;DHT22;36669;51.428;21.162;2022-10-16T15:42:38;19.50;99.90
44886;DHT22;36669;51.428;21.162;2022-10-16T15:45:04;19.40;99.90
44886;DHT22;36669;51.428;21.162;2022-10-16T15:47:29;19.30;99.90
44886;DHT22;36669;51.428;21.162;2022-10-16T15:49:55;19.30;99.90
44886;DHT22;36669;51.428;21.162;2022-10-16T15:52:20;19.10;99.90
44886;DHT22;36669;51.428;21.162;2022-10-16T15:54:46;19.10;99.90
44886;DHT22;36669;51.428;21.162;2022-10-16T15:57:12;19.00;99.90
44886;DHT22;36669;51.428;21.162;2022-10-16T15:59:38;19.00;99.90
44886;DHT22;36669;51.428;21.162;2022-10-16T16:02:04;18.90;99.90
44886;DHT22;36669;51.428;21.162;2022-10-16T16:04:30;18.90;99.90
44886;DHT22;36669;51.428;21.162;2022-10-16T16:06:55;18.80;99.90
44886;DHT22;36669;51.428;21.162;2022-10-16T16:09:21;18.80;99.90
44886;DHT22;36669;51.428;21.162;2022-10-16T16:11:46;18.80;99.90
44886;DHT22;36669;51.428;21.162;2022-10-16T16:14:13;18.70;99.90
44886;DHT22;36669;51.428;21.162;2022-10-16T16:16:39;18.70;99.90
44886;DHT22;36669;51.428;21.162;2022-10-16T16:19:05;18.70;99.90
44886;DHT22;36669;51.428;21.162;2022-10-16T16:21:30;18.60;99.90
44886;DHT22;36669;51.428;21.162;2022-10-16T16:23:56;18.60;99.90
44886;DHT22;36669;51.428;21.162;2022-10-16T16:26:29;18.60;99.90
44886;DHT22;36669;51.428;21.162;2022-10-16T16:28:55;18.60;99.90
44886;DHT22;36669;51.428;21.162;2022-10-16T16:31:24;18.50;99.90
44886;DHT22;36669;51.428;21.162;2022-10-16T16:33:49;18.50;99.90
44886;DHT22;36669;51.428;21.162;2022-10-16T16:36:15;18.40;99.90
44886;DHT22;36669;51.428;21.162;2022-10-16T16:38:40;18.40;99.90
44886;DHT22;36669;51.428;21.162;2022-10-16T16:41:23;18.40;99.90
44886;DHT22;36669;51.428;21.162;2022-10-16T16:43:49;18.30;99.90
44886;DHT22;36669;51.428;21.162;2022-10-16T16:46:15;18.30;99.90
44886;DHT22;36669;51.428;21.162;2022-10-16T16:48:40;18.30;99.90
44886;DHT22;36669;51.428;21.162;2022-10-16T16:51:14;18.20;99.90
44886;DHT22;36669;51.428;21.162;2022-10-16T16:53:41;18.20;99.90
44886;DHT22;36669;51.428;21.162;2022-10-16T16:56:08;18.20;99.90
44886;DHT22;36669;51.428;21.162;2022-10-16T16:58:35;18.20;99.90
44886;DHT22;36669;51.428;21.162;2022-10-16T17:01:02;18.20;99.90
44886;DHT22;36669;51.428;21.162;2022-10-16T17:03:32;18.20;99.90
44886;DHT22;36669;51.428;21.162;2022-10-16T17:05:59;18.20;99.90
44886;DHT22;36669;51.428;21.162;2022-10-16T17:08:25;18.20;99.90
44886;DHT22;36669;51.428;21.162;2022-10-16T17:10:50;18.10;99.90
44886;DHT22;36669;51.428;21.162;2022-10-16T17:13:17;18.10;99.90
44886;DHT22;36669;51.428;21.162;2022-10-16T17:15:48;18.10;99.90
44886;DHT22;36669;51.428;21.162;2022-10-16T17:18:15;18.00;99.90
44886;DHT22;36669;51.428;21.162;2022-10-16T17:20:43;18.00;99.90
44886;DHT22;36669;51.428;21.162;2022-10-16T17:23:10;17.90;99.90
44886;DHT22;36669;51.428;21.162;2022-10-16T17:25:38;17.90;99.90
44886;DHT22;36669;51.428;21.162;2022-10-16T17:28:06;17.90;99.90